sensor_id;sensor_type;location;lat;lon;timestamp;P1;durP1;ratioP1;P2;durP2;ratioP2
55224;SDS011;41091;49.400;8.684;2023-02-04T00:02:24;1.65;;;1.55;;
55224;SDS011;41091;49.400;8.684;2023-02-04T00:04:50;3.17;;;1.40;;
55224;SDS011;41091;49.400;8.684;2023-02-04T00:07:15;2.78;;;1.35;;
55224;SDS011;41091;49.400;8.684;2023-02-04T00:09:44;1.27;;;0.98;;
55224;SDS011;41091;49.400;8.684;2023-02-04T00:12:13;2.50;;;1.45;;
55224;SDS011;41091;49.400;8.684;2023-02-04T00:14:41;3.63;;;1.50;;
55224;SDS011;41091;49.400;8.684;2023-02-04T00:17:09;3.67;;;1.52;;
55224;SDS011;41091;49.400;8.684;2023-02-04T00:19:36;1.98;;;1.38;;
55224;SDS011;41091;49.400;8.684;2023-02-04T00:22:02;3.88;;;1.70;;
55224;SDS011;41091;49.400;8.684;2023-02-04T00:24:34;2.88;;;1.60;;
55224;SDS011;41091;49.400;8.684;2023-02-04T00:27:02;2.85;;;1.20;;
55224;SDS011;41091;49.400;8.684;2023-02-04T00:29:28;4.28;;;1.58;;
55224;SDS011;41091;49.400;8.684;2023-02-04T00:31:54;2.88;;;0.90;;
55224;SDS011;41091;49.400;8.684;2023-02-04T00:34:19;3.20;;;1.35;;
55224;SDS011;41091;49.400;8.684;2023-02-04T00:36:44;7.45;;;1.42;;
55224;SDS011;41091;49.400;8.684;2023-02-04T00:39:12;3.92;;;1.67;;
55224;SDS011;41091;49.400;8.684;2023-02-04T00:41:37;6.82;;;1.70;;
55224;SDS011;41091;49.400;8.684;2023-02-04T00:44:06;1.95;;;1.73;;
55224;SDS011;41091;49.400;8.684;2023-02-04T00:46:31;6.40;;;1.52;;
55224;SDS011;41091;49.400;8.684;2023-02-04T00:49:01;4.53;;;1.58;;
55224;SDS011;41091;49.400;8.684;2023-02-04T00:51:26;2.22;;;1.65;;
55224;SDS011;41091;49.400;8.684;2023-02-04T00:53:51;3.97;;;1.30;;
55224;SDS011;41091;49.400;8.684;2023-02-04T00:56:17;4.15;;;1.50;;
55224;SDS011;41091;49.400;8.684;2023-02-04T00:58:44;4.25;;;1.40;;
55224;SDS011;41091;49.400;8.684;2023-02-04T01:01:10;2.08;;;1.30;;
55224;SDS011;41091;49.400;8.684;2023-02-04T01:03:35;2.00;;;1.00;;
55224;SDS011;41091;49.400;8.684;2023-02-04T01:06:00;4.88;;;1.15;;
55224;SDS011;41091;49.400;8.684;2023-02-04T01:08:26;2.53;;;1.38;;
55224;SDS011;41091;49.400;8.684;2023-02-04T01:10:56;2.55;;;1.25;;
55224;SDS011;41091;49.400;8.684;2023-02-04T01:13:24;5.78;;;1.27;;
55224;SDS011;41091;49.400;8.684;2023-02-04T01:15:49;8.68;;;1.55;;
55224;SDS011;41091;49.400;8.684;2023-02-04T01:18:14;2.22;;;1.13;;
55224;SDS011;41091;49.400;8.684;2023-02-04T01:20:40;4.25;;;1.02;;
55224;SDS011;41091;49.400;8.684;2023-02-04T01:23:09;5.38;;;1.60;;
55224;SDS011;41091;49.400;8.684;2023-02-04T01:25:37;11.93;;;2.05;;
55224;SDS011;41091;49.400;8.684;2023-02-04T01:28:02;8.15;;;1.98;;
55224;SDS011;41091;49.400;8.684;2023-02-04T01:30:28;6.63;;;1.80;;
55224;SDS011;41091;49.400;8.684;2023-02-04T01:32:53;8.90;;;2.42;;
55224;SDS011;41091;49.400;8.684;2023-02-04T01:35:19;8.25;;;1.67;;
55224;SDS011;41091;49.400;8.684;2023-02-04T01:37:44;11.02;;;2.40;;
55224;SDS011;41091;49.400;8.684;2023-02-04T01:40:09;7.50;;;1.60;;
55224;SDS011;41091;49.400;8.684;2023-02-04T01:42:35;4.07;;;2.03;;
55224;SDS011;41091;49.400;8.684;2023-02-04T01:45:01;3.97;;;2.05;;
55224;SDS011;41091;49.400;8.684;2023-02-04T01:47:30;13.40;;;2.45;;
55224;SDS011;41091;49.400;8.684;2023-02-04T01:49:57;5.15;;;1.20;;
55224;SDS011;41091;49.400;8.684;2023-02-04T01:52:33;11.48;;;2.72;;
55224;SDS011;41091;49.400;8.684;2023-02-04T01:55:04;6.82;;;1.90;;
55224;SDS011;41091;49.400;8.684;2023-02-04T01:57:40;7.28;;;2.90;;
55224;SDS011;41091;49.400;8.684;2023-02-04T02:00:18;7.72;;;1.80;;
55224;SDS011;41091;49.400;8.684;2023-02-04T02:02:49;5.88;;;2.58;;
55224;SDS011;41091;49.400;8.684;2023-02-04T02:05:19;12.50;;;2.35;;
55224;SDS011;41091;49.400;8.684;2023-02-04T02:07:48;9.75;;;4.07;;
55224;SDS011;41091;49.400;8.684;2023-02-04T02:10:15;11.27;;;3.28;;
55224;SDS011;41091;49.400;8.684;2023-02-04T02:12:44;9.02;;;2.17;;
55224;SDS011;41091;49.400;8.684;2023-02-04T02:15:12;13.93;;;2.50;;
55224;SDS011;41091;49.400;8.684;2023-02-04T02:17:38;8.07;;;2.28;;
55224;SDS011;41091;49.400;8.684;2023-02-04T02:20:08;8.57;;;2.50;;
55224;SDS011;41091;49.400;8.684;2023-02-04T02:25:16;7.40;;;1.92;;
55224;SDS011;41091;49.400;8.684;2023-02-04T02:27:42;11.10;;;2.55;;
55224;SDS011;41091;49.400;8.684;2023-02-04T02:30:11;11.95;;;1.85;;
55224;SDS011;41091;49.400;8.684;2023-02-04T02:32:41;11.32;;;3.20;;
55224;SDS011;41091;49.400;8.684;2023-02-04T02:35:07;6.22;;;2.20;;
55224;SDS011;41091;49.400;8.684;2023-02-04T02:37:36;16.88;;;2.58;;
55224;SDS011;41091;49.400;8.684;2023-02-04T02:40:01;9.05;;;2.25;;
55224;SDS011;41091;49.400;8.684;2023-02-04T02:42:29;10.27;;;1.98;;
55224;SDS011;41091;49.400;8.684;2023-02-04T02:44:57;20.00;;;2.90;;
55224;SDS011;41091;49.400;8.684;2023-02-04T02:49:52;12.25;;;2.70;;
55224;SDS011;41091;49.400;8.684;2023-02-04T02:52:18;7.28;;;2.22;;
55224;SDS011;41091;49.400;8.684;2023-02-04T02:54:48;13.23;;;2.67;;
55224;SDS011;41091;49.400;8.684;2023-02-04T02:57:15;10.88;;;2.30;;
55224;SDS011;41091;49.400;8.684;2023-02-04T02:59:44;6.15;;;1.55;;
55224;SDS011;41091;49.400;8.684;2023-02-04T03:02:10;10.27;;;2.45;;
55224;SDS011;41091;49.400;8.684;2023-02-04T03:04:38;6.38;;;2.70;;
55224;SDS011;41091;49.400;8.684;2023-02-04T03:07:08;10.75;;;2.03;;
55224;SDS011;41091;49.400;8.684;2023-02-04T03:09:38;7.97;;;2.67;;
55224;SDS011;41091;49.400;8.684;2023-02-04T03:12:04;11.60;;;2.60;;
55224;SDS011;41091;49.400;8.684;2023-02-04T03:14:30;7.32;;;2.15;;
55224;SDS011;41091;49.400;8.684;2023-02-04T03:16:55;8.90;;;1.48;;
55224;SDS011;41091;49.400;8.684;2023-02-04T03:19:22;9.40;;;2.25;;
55224;SDS011;41091;49.400;8.684;2023-02-04T03:21:48;7.05;;;3.20;;
55224;SDS011;41091;49.400;8.684;2023-02-04T03:24:14;6.70;;;2.15;;
55224;SDS011;41091;49.400;8.684;2023-02-04T03:26:39;13.27;;;3.00;;
55224;SDS011;41091;49.400;8.684;2023-02-04T03:29:05;9.65;;;1.90;;
55224;SDS011;41091;49.400;8.684;2023-02-04T03:31:32;9.60;;;1.98;;
55224;SDS011;41091;49.400;8.684;2023-02-04T03:33:57;15.85;;;1.98;;
55224;SDS011;41091;49.400;8.684;2023-02-04T03:36:27;6.35;;;2.50;;
55224;SDS011;41091;49.400;8.684;2023-02-04T03:38:55;10.65;;;2.03;;
55224;SDS011;41091;49.400;8.684;2023-02-04T03:41:23;16.95;;;2.38;;
55224;SDS011;41091;49.400;8.684;2023-02-04T03:43:48;5.05;;;1.83;;
55224;SDS011;41091;49.400;8.684;2023-02-04T03:46:14;7.93;;;1.58;;
55224;SDS011;41091;49.400;8.684;2023-02-04T03:48:39;10.45;;;3.40;;
55224;SDS011;41091;49.400;8.684;2023-02-04T03:51:05;17.30;;;3.08;;
55224;SDS011;41091;49.400;8.684;2023-02-04T03:53:33;13.15;;;1.90;;
55224;SDS011;41091;49.400;8.684;2023-02-04T03:56:01;12.90;;;2.28;;
55224;SDS011;41091;49.400;8.684;2023-02-04T03:58:26;12.82;;;2.13;;
55224;SDS011;41091;49.400;8.684;2023-02-04T04:00:54;10.90;;;1.80;;
55224;SDS011;41091;49.400;8.684;2023-02-04T04:03:19;7.50;;;1.27;;
55224;SDS011;41091;49.400;8.684;2023-02-04T04:05:45;13.43;;;2.45;;
55224;SDS011;41091;49.400;8.684;2023-02-04T04:08:10;7.20;;;1.80;;
55224;SDS011;41091;49.400;8.684;2023-02-04T04:10:38;9.13;;;1.88;;
55224;SDS011;41091;49.400;8.684;2023-02-04T04:13:05;4.78;;;1.83;;
55224;SDS011;41091;49.400;8.684;2023-02-04T04:15:31;13.18;;;2.22;;
55224;SDS011;41091;49.400;8.684;2023-02-04T04:17:58;6.30;;;2.55;;
55224;SDS011;41091;49.400;8.684;2023-02-04T04:20:28;14.88;;;2.13;;
55224;SDS011;41091;49.400;8.684;2023-02-04T04:22:53;17.08;;;2.53;;
55224;SDS011;41091;49.400;8.684;2023-02-04T04:25:19;7.80;;;1.60;;
55224;SDS011;41091;49.400;8.684;2023-02-04T04:27:44;10.00;;;1.65;;
55224;SDS011;41091;49.400;8.684;2023-02-04T04:30:12;10.23;;;3.75;;
55224;SDS011;41091;49.400;8.684;2023-02-04T04:32:37;10.82;;;2.05;;
55224;SDS011;41091;49.400;8.684;2023-02-04T04:35:03;8.82;;;2.40;;
55224;SDS011;41091;49.400;8.684;2023-02-04T04:37:30;8.05;;;2.70;;
55224;SDS011;41091;49.400;8.684;2023-02-04T04:39:56;16.02;;;2.72;;
55224;SDS011;41091;49.400;8.684;2023-02-04T04:42:25;10.70;;;3.17;;
55224;SDS011;41091;49.400;8.684;2023-02-04T04:44:50;18.45;;;3.13;;
55224;SDS011;41091;49.400;8.684;2023-02-04T04:47:15;11.95;;;3.22;;
55224;SDS011;41091;49.400;8.684;2023-02-04T04:49:41;18.42;;;3.17;;
55224;SDS011;41091;49.400;8.684;2023-02-04T04:52:06;18.27;;;3.88;;
55224;SDS011;41091;49.400;8.684;2023-02-04T04:54:34;11.57;;;3.22;;
55224;SDS011;41091;49.400;8.684;2023-02-04T04:57:02;10.25;;;3.38;;
55224;SDS011;41091;49.400;8.684;2023-02-04T04:59:27;14.57;;;4.25;;
55224;SDS011;41091;49.400;8.684;2023-02-04T05:01:55;16.83;;;3.50;;
55224;SDS011;41091;49.400;8.684;2023-02-04T05:04:22;21.30;;;3.72;;
55224;SDS011;41091;49.400;8.684;2023-02-04T05:06:50;13.30;;;3.22;;
55224;SDS011;41091;49.400;8.684;2023-02-04T05:09:17;17.05;;;4.10;;
55224;SDS011;41091;49.400;8.684;2023-02-04T05:11:42;15.95;;;4.22;;
55224;SDS011;41091;49.400;8.684;2023-02-04T05:14:08;11.65;;;3.03;;
55224;SDS011;41091;49.400;8.684;2023-02-04T05:16:33;12.55;;;3.20;;
55224;SDS011;41091;49.400;8.684;2023-02-04T05:19:01;20.67;;;3.30;;
55224;SDS011;41091;49.400;8.684;2023-02-04T05:21:26;11.93;;;2.78;;
55224;SDS011;41091;49.400;8.684;2023-02-04T05:23:52;17.33;;;3.70;;
55224;SDS011;41091;49.400;8.684;2023-02-04T05:26:17;11.85;;;3.40;;
55224;SDS011;41091;49.400;8.684;2023-02-04T05:28:44;4.63;;;2.65;;
55224;SDS011;41091;49.400;8.684;2023-02-04T05:31:10;10.27;;;3.03;;
55224;SDS011;41091;49.400;8.684;2023-02-04T05:33:35;15.77;;;3.45;;
55224;SDS011;41091;49.400;8.684;2023-02-04T05:36:03;17.25;;;3.25;;
55224;SDS011;41091;49.400;8.684;2023-02-04T05:38:28;17.92;;;3.75;;
55224;SDS011;41091;49.400;8.684;2023-02-04T05:40:53;17.60;;;3.25;;
55224;SDS011;41091;49.400;8.684;2023-02-04T05:43:19;13.55;;;2.92;;
55224;SDS011;41091;49.400;8.684;2023-02-04T05:45:46;11.25;;;3.50;;
55224;SDS011;41091;49.400;8.684;2023-02-04T05:48:14;13.02;;;2.83;;
55224;SDS011;41091;49.400;8.684;2023-02-04T05:50:39;11.40;;;3.03;;
55224;SDS011;41091;49.400;8.684;2023-02-04T05:53:05;22.15;;;3.88;;
55224;SDS011;41091;49.400;8.684;2023-02-04T05:55:32;16.13;;;2.95;;
55224;SDS011;41091;49.400;8.684;2023-02-04T05:57:58;22.67;;;3.65;;
55224;SDS011;41091;49.400;8.684;2023-02-04T06:00:26;14.20;;;3.15;;
55224;SDS011;41091;49.400;8.684;2023-02-04T06:02:53;13.88;;;3.20;;
55224;SDS011;41091;49.400;8.684;2023-02-04T06:05:21;17.92;;;3.80;;
55224;SDS011;41091;49.400;8.684;2023-02-04T06:07:47;30.25;;;5.30;;
55224;SDS011;41091;49.400;8.684;2023-02-04T06:10:12;18.42;;;3.00;;
55224;SDS011;41091;49.400;8.684;2023-02-04T06:12:38;21.38;;;3.78;;
55224;SDS011;41091;49.400;8.684;2023-02-04T06:15:05;17.67;;;2.97;;
55224;SDS011;41091;49.400;8.684;2023-02-04T06:17:31;13.05;;;2.45;;
55224;SDS011;41091;49.400;8.684;2023-02-04T06:19:57;16.58;;;4.72;;
55224;SDS011;41091;49.400;8.684;2023-02-04T06:22:22;22.35;;;3.47;;
55224;SDS011;41091;49.400;8.684;2023-02-04T06:24:48;17.08;;;3.35;;
55224;SDS011;41091;49.400;8.684;2023-02-04T06:27:16;8.18;;;3.53;;
55224;SDS011;41091;49.400;8.684;2023-02-04T06:29:48;11.35;;;2.63;;
55224;SDS011;41091;49.400;8.684;2023-02-04T06:32:17;14.65;;;3.70;;
55224;SDS011;41091;49.400;8.684;2023-02-04T06:34:43;10.48;;;2.60;;
55224;SDS011;41091;49.400;8.684;2023-02-04T06:37:09;18.45;;;3.80;;
55224;SDS011;41091;49.400;8.684;2023-02-04T06:39:34;17.13;;;3.70;;
55224;SDS011;41091;49.400;8.684;2023-02-04T06:42:02;11.82;;;3.22;;
55224;SDS011;41091;49.400;8.684;2023-02-04T06:44:27;18.52;;;3.72;;
55224;SDS011;41091;49.400;8.684;2023-02-04T06:46:52;20.05;;;3.65;;
55224;SDS011;41091;49.400;8.684;2023-02-04T06:49:18;19.73;;;3.85;;
55224;SDS011;41091;49.400;8.684;2023-02-04T06:51:45;11.10;;;2.88;;
55224;SDS011;41091;49.400;8.684;2023-02-04T06:54:14;9.60;;;3.95;;
55224;SDS011;41091;49.400;8.684;2023-02-04T06:56:39;12.93;;;3.25;;
55224;SDS011;41091;49.400;8.684;2023-02-04T06:59:05;15.95;;;3.08;;
55224;SDS011;41091;49.400;8.684;2023-02-04T07:01:32;17.20;;;3.33;;
55224;SDS011;41091;49.400;8.684;2023-02-04T07:03:57;13.13;;;3.30;;
55224;SDS011;41091;49.400;8.684;2023-02-04T07:06:23;22.30;;;4.00;;
55224;SDS011;41091;49.400;8.684;2023-02-04T07:08:51;13.90;;;3.08;;
55224;SDS011;41091;49.400;8.684;2023-02-04T07:11:18;5.45;;;2.47;;
55224;SDS011;41091;49.400;8.684;2023-02-04T07:13:43;9.93;;;2.92;;
55224;SDS011;41091;49.400;8.684;2023-02-04T07:16:11;15.40;;;3.30;;
55224;SDS011;41091;49.400;8.684;2023-02-04T07:18:36;14.68;;;2.95;;
55224;SDS011;41091;49.400;8.684;2023-02-04T07:21:04;19.40;;;3.85;;
55224;SDS011;41091;49.400;8.684;2023-02-04T07:23:30;21.00;;;4.35;;
55224;SDS011;41091;49.400;8.684;2023-02-04T07:25:55;10.20;;;3.28;;
55224;SDS011;41091;49.400;8.684;2023-02-04T07:28:23;16.90;;;3.25;;
55224;SDS011;41091;49.400;8.684;2023-02-04T07:30:55;13.40;;;3.72;;
55224;SDS011;41091;49.400;8.684;2023-02-04T07:33:20;11.90;;;3.20;;
55224;SDS011;41091;49.400;8.684;2023-02-04T07:35:46;11.95;;;3.42;;
55224;SDS011;41091;49.400;8.684;2023-02-04T07:38:11;17.60;;;3.97;;
55224;SDS011;41091;49.400;8.684;2023-02-04T07:40:36;11.30;;;3.22;;
55224;SDS011;41091;49.400;8.684;2023-02-04T07:43:03;12.07;;;3.47;;
55224;SDS011;41091;49.400;8.684;2023-02-04T07:45:31;5.80;;;2.70;;
55224;SDS011;41091;49.400;8.684;2023-02-04T07:47:56;15.68;;;4.03;;
55224;SDS011;41091;49.400;8.684;2023-02-04T07:50:24;11.57;;;3.63;;
55224;SDS011;41091;49.400;8.684;2023-02-04T07:52:49;15.38;;;4.10;;
55224;SDS011;41091;49.400;8.684;2023-02-04T07:55:16;20.60;;;3.42;;
55224;SDS011;41091;49.400;8.684;2023-02-04T07:57:44;14.85;;;3.92;;
55224;SDS011;41091;49.400;8.684;2023-02-04T08:00:12;5.80;;;2.22;;
55224;SDS011;41091;49.400;8.684;2023-02-04T08:02:38;16.95;;;3.47;;
55224;SDS011;41091;49.400;8.684;2023-02-04T08:05:05;17.27;;;4.50;;
55224;SDS011;41091;49.400;8.684;2023-02-04T08:07:33;14.60;;;5.00;;
55224;SDS011;41091;49.400;8.684;2023-02-04T08:09:58;22.38;;;5.13;;
55224;SDS011;41091;49.400;8.684;2023-02-04T08:12:24;15.57;;;4.78;;
55224;SDS011;41091;49.400;8.684;2023-02-04T08:14:57;22.23;;;3.85;;
55224;SDS011;41091;49.400;8.684;2023-02-04T08:17:22;17.83;;;4.20;;
55224;SDS011;41091;49.400;8.684;2023-02-04T08:19:48;12.55;;;3.15;;
55224;SDS011;41091;49.400;8.684;2023-02-04T08:22:13;20.58;;;4.85;;
55224;SDS011;41091;49.400;8.684;2023-02-04T08:24:38;11.90;;;3.05;;
55224;SDS011;41091;49.400;8.684;2023-02-04T08:27:04;13.05;;;2.97;;
55224;SDS011;41091;49.400;8.684;2023-02-04T08:29:29;12.38;;;2.88;;
55224;SDS011;41091;49.400;8.684;2023-02-04T08:31:54;17.38;;;2.95;;
55224;SDS011;41091;49.400;8.684;2023-02-04T08:34:20;22.30;;;4.07;;
55224;SDS011;41091;49.400;8.684;2023-02-04T08:36:45;15.20;;;3.40;;
55224;SDS011;41091;49.400;8.684;2023-02-04T08:39:13;17.55;;;3.65;;
55224;SDS011;41091;49.400;8.684;2023-02-04T08:41:38;17.10;;;4.88;;
55224;SDS011;41091;49.400;8.684;2023-02-04T08:44:04;15.55;;;3.30;;
55224;SDS011;41091;49.400;8.684;2023-02-04T08:46:29;17.83;;;3.53;;
55224;SDS011;41091;49.400;8.684;2023-02-04T08:48:54;22.15;;;5.75;;
55224;SDS011;41091;49.400;8.684;2023-02-04T08:51:20;13.18;;;3.75;;
55224;SDS011;41091;49.400;8.684;2023-02-04T08:53:47;11.07;;;3.08;;
55224;SDS011;41091;49.400;8.684;2023-02-04T08:56:16;21.38;;;4.15;;
55224;SDS011;41091;49.400;8.684;2023-02-04T08:58:44;20.83;;;3.63;;
55224;SDS011;41091;49.400;8.684;2023-02-04T09:01:12;12.75;;;2.78;;
55224;SDS011;41091;49.400;8.684;2023-02-04T09:03:41;25.95;;;4.75;;
55224;SDS011;41091;49.400;8.684;2023-02-04T09:06:06;19.95;;;3.00;;
55224;SDS011;41091;49.400;8.684;2023-02-04T09:08:32;15.38;;;3.30;;
55224;SDS011;41091;49.400;8.684;2023-02-04T09:10:58;22.05;;;3.65;;
55224;SDS011;41091;49.400;8.684;2023-02-04T09:13:28;14.52;;;3.03;;
55224;SDS011;41091;49.400;8.684;2023-02-04T09:15:56;16.48;;;3.90;;
55224;SDS011;41091;49.400;8.684;2023-02-04T09:18:21;16.63;;;2.83;;
55224;SDS011;41091;49.400;8.684;2023-02-04T09:20:50;19.63;;;4.10;;
55224;SDS011;41091;49.400;8.684;2023-02-04T09:23:21;26.67;;;4.38;;
55224;SDS011;41091;49.400;8.684;2023-02-04T09:25:50;14.20;;;3.67;;
55224;SDS011;41091;49.400;8.684;2023-02-04T09:30:46;21.63;;;3.80;;
55224;SDS011;41091;49.400;8.684;2023-02-04T09:35:41;11.82;;;3.13;;
55224;SDS011;41091;49.400;8.684;2023-02-04T09:38:07;18.70;;;3.47;;
55224;SDS011;41091;49.400;8.684;2023-02-04T09:40:34;18.45;;;3.30;;
55224;SDS011;41091;49.400;8.684;2023-02-04T09:43:03;28.70;;;4.63;;
55224;SDS011;41091;49.400;8.684;2023-02-04T09:45:31;13.07;;;3.30;;
55224;SDS011;41091;49.400;8.684;2023-02-04T09:48:01;19.13;;;3.65;;
55224;SDS011;41091;49.400;8.684;2023-02-04T09:50:28;16.00;;;3.20;;
55224;SDS011;41091;49.400;8.684;2023-02-04T09:52:59;21.98;;;4.75;;
55224;SDS011;41091;49.400;8.684;2023-02-04T09:55:28;20.27;;;3.60;;
55224;SDS011;41091;49.400;8.684;2023-02-04T09:57:55;18.45;;;3.95;;
55224;SDS011;41091;49.400;8.684;2023-02-04T10:00:24;16.25;;;3.83;;
55224;SDS011;41091;49.400;8.684;2023-02-04T10:05:17;13.50;;;3.38;;
55224;SDS011;41091;49.400;8.684;2023-02-04T10:07:44;15.85;;;3.13;;
55224;SDS011;41091;49.400;8.684;2023-02-04T10:10:17;13.50;;;3.05;;
55224;SDS011;41091;49.400;8.684;2023-02-04T10:12:48;15.18;;;3.92;;
55224;SDS011;41091;49.400;8.684;2023-02-04T10:15:14;19.40;;;3.53;;
55224;SDS011;41091;49.400;8.684;2023-02-04T10:17:43;18.98;;;3.22;;
55224;SDS011;41091;49.400;8.684;2023-02-04T10:20:13;22.55;;;4.00;;
55224;SDS011;41091;49.400;8.684;2023-02-04T10:22:38;31.42;;;4.15;;
55224;SDS011;41091;49.400;8.684;2023-02-04T10:25:14;22.77;;;3.67;;
55224;SDS011;41091;49.400;8.684;2023-02-04T10:30:26;15.35;;;3.15;;
55224;SDS011;41091;49.400;8.684;2023-02-04T10:32:59;16.63;;;2.85;;
55224;SDS011;41091;49.400;8.684;2023-02-04T10:35:25;13.30;;;2.58;;
55224;SDS011;41091;49.400;8.684;2023-02-04T10:38:03;20.85;;;4.13;;
55224;SDS011;41091;49.400;8.684;2023-02-04T10:40:32;17.13;;;3.10;;
55224;SDS011;41091;49.400;8.684;2023-02-04T10:43:10;23.80;;;2.92;;
55224;SDS011;41091;49.400;8.684;2023-02-04T10:45:43;13.07;;;3.72;;
55224;SDS011;41091;49.400;8.684;2023-02-04T10:48:15;20.33;;;3.20;;
55224;SDS011;41091;49.400;8.684;2023-02-04T10:50:44;19.20;;;2.65;;
55224;SDS011;41091;49.400;8.684;2023-02-04T10:53:10;16.23;;;4.15;;
55224;SDS011;41091;49.400;8.684;2023-02-04T10:55:58;17.05;;;2.97;;
55224;SDS011;41091;49.400;8.684;2023-02-04T10:58:25;9.93;;;2.25;;
55224;SDS011;41091;49.400;8.684;2023-02-04T11:00:52;11.02;;;2.80;;
55224;SDS011;41091;49.400;8.684;2023-02-04T11:03:27;26.05;;;2.47;;
55224;SDS011;41091;49.400;8.684;2023-02-04T11:05:58;15.25;;;2.45;;
55224;SDS011;41091;49.400;8.684;2023-02-04T11:08:31;10.48;;;2.22;;
55224;SDS011;41091;49.400;8.684;2023-02-04T11:14:16;11.30;;;2.85;;
55224;SDS011;41091;49.400;8.684;2023-02-04T11:16:53;15.13;;;2.13;;
55224;SDS011;41091;49.400;8.684;2023-02-04T11:19:30;12.57;;;2.60;;
55224;SDS011;41091;49.400;8.684;2023-02-04T11:22:03;10.48;;;2.67;;
55224;SDS011;41091;49.400;8.684;2023-02-04T11:24:49;11.23;;;2.25;;
55224;SDS011;41091;49.400;8.684;2023-02-04T11:27:21;9.70;;;2.35;;
55224;SDS011;41091;49.400;8.684;2023-02-04T11:29:48;15.32;;;1.95;;
55224;SDS011;41091;49.400;8.684;2023-02-04T11:35:05;10.45;;;3.05;;
55224;SDS011;41091;49.400;8.684;2023-02-04T11:40:19;8.65;;;1.92;;
55224;SDS011;41091;49.400;8.684;2023-02-04T11:42:49;10.82;;;2.00;;
55224;SDS011;41091;49.400;8.684;2023-02-04T11:45:23;7.05;;;1.63;;
55224;SDS011;41091;49.400;8.684;2023-02-04T11:47:51;14.30;;;2.47;;
55224;SDS011;41091;49.400;8.684;2023-02-04T11:50:20;14.75;;;2.75;;
55224;SDS011;41091;49.400;8.684;2023-02-04T11:52:50;12.93;;;2.38;;
55224;SDS011;41091;49.400;8.684;2023-02-04T11:55:17;11.88;;;1.80;;
55224;SDS011;41091;49.400;8.684;2023-02-04T11:57:43;11.43;;;1.80;;
55224;SDS011;41091;49.400;8.684;2023-02-04T12:00:13;6.07;;;1.63;;
55224;SDS011;41091;49.400;8.684;2023-02-04T12:05:13;10.55;;;1.65;;
55224;SDS011;41091;49.400;8.684;2023-02-04T12:07:40;6.60;;;1.55;;
55224;SDS011;41091;49.400;8.684;2023-02-04T12:10:13;3.70;;;1.52;;
55224;SDS011;41091;49.400;8.684;2023-02-04T12:12:50;4.53;;;1.83;;
55224;SDS011;41091;49.400;8.684;2023-02-04T12:15:21;8.02;;;1.58;;
55224;SDS011;41091;49.400;8.684;2023-02-04T12:20:27;9.70;;;1.88;;
55224;SDS011;41091;49.400;8.684;2023-02-04T12:22:52;5.78;;;1.30;;
55224;SDS011;41091;49.400;8.684;2023-02-04T12:25:17;5.28;;;1.50;;
55224;SDS011;41091;49.400;8.684;2023-02-04T12:27:44;7.20;;;1.92;;
55224;SDS011;41091;49.400;8.684;2023-02-04T12:30:09;6.18;;;1.55;;
55224;SDS011;41091;49.400;8.684;2023-02-04T12:32:36;8.38;;;1.63;;
55224;SDS011;41091;49.400;8.684;2023-02-04T12:35:01;8.50;;;1.98;;
55224;SDS011;41091;49.400;8.684;2023-02-04T12:37:27;9.25;;;2.80;;
55224;SDS011;41091;49.400;8.684;2023-02-04T12:39:52;8.60;;;1.85;;
55224;SDS011;41091;49.400;8.684;2023-02-04T12:42:17;7.15;;;1.65;;
55224;SDS011;41091;49.400;8.684;2023-02-04T12:44:42;12.82;;;3.00;;
55224;SDS011;41091;49.400;8.684;2023-02-04T12:47:10;5.78;;;2.03;;
55224;SDS011;41091;49.400;8.684;2023-02-04T12:49:35;13.23;;;5.03;;
55224;SDS011;41091;49.400;8.684;2023-02-04T12:52:02;18.83;;;5.93;;
55224;SDS011;41091;49.400;8.684;2023-02-04T12:54:32;7.88;;;3.65;;
55224;SDS011;41091;49.400;8.684;2023-02-04T12:56:57;25.95;;;10.57;;
55224;SDS011;41091;49.400;8.684;2023-02-04T12:59:23;10.60;;;3.45;;
55224;SDS011;41091;49.400;8.684;2023-02-04T13:01:49;15.05;;;4.72;;
55224;SDS011;41091;49.400;8.684;2023-02-04T13:04:15;9.30;;;1.65;;
55224;SDS011;41091;49.400;8.684;2023-02-04T13:06:40;8.20;;;1.60;;
55224;SDS011;41091;49.400;8.684;2023-02-04T13:09:08;3.95;;;1.10;;
55224;SDS011;41091;49.400;8.684;2023-02-04T13:11:33;3.63;;;0.80;;
55224;SDS011;41091;49.400;8.684;2023-02-04T13:14:03;4.63;;;1.13;;
55224;SDS011;41091;49.400;8.684;2023-02-04T13:16:28;6.03;;;1.02;;
55224;SDS011;41091;49.400;8.684;2023-02-04T13:18:53;4.53;;;1.45;;
55224;SDS011;41091;49.400;8.684;2023-02-04T13:21:21;6.43;;;1.05;;
55224;SDS011;41091;49.400;8.684;2023-02-04T13:23:47;7.57;;;1.73;;
55224;SDS011;41091;49.400;8.684;2023-02-04T13:26:12;6.30;;;1.38;;
55224;SDS011;41091;49.400;8.684;2023-02-04T13:28:40;8.35;;;1.27;;
55224;SDS011;41091;49.400;8.684;2023-02-04T13:31:05;15.60;;;1.92;;
55224;SDS011;41091;49.400;8.684;2023-02-04T13:33:31;10.43;;;1.80;;
55224;SDS011;41091;49.400;8.684;2023-02-04T13:35:57;8.57;;;1.40;;
55224;SDS011;41091;49.400;8.684;2023-02-04T13:38:22;9.63;;;1.60;;
55224;SDS011;41091;49.400;8.684;2023-02-04T13:40:49;4.32;;;1.35;;
55224;SDS011;41091;49.400;8.684;2023-02-04T13:43:19;4.88;;;1.25;;
55224;SDS011;41091;49.400;8.684;2023-02-04T13:45:47;9.55;;;2.13;;
55224;SDS011;41091;49.400;8.684;2023-02-04T13:48:15;7.10;;;1.85;;
55224;SDS011;41091;49.400;8.684;2023-02-04T13:50:40;5.10;;;1.20;;
55224;SDS011;41091;49.400;8.684;2023-02-04T13:53:06;11.80;;;1.55;;
55224;SDS011;41091;49.400;8.684;2023-02-04T13:55:36;3.13;;;1.40;;
55224;SDS011;41091;49.400;8.684;2023-02-04T13:58:02;5.43;;;1.83;;
55224;SDS011;41091;49.400;8.684;2023-02-04T14:00:27;12.07;;;2.03;;
55224;SDS011;41091;49.400;8.684;2023-02-04T14:02:52;5.82;;;1.10;;
55224;SDS011;41091;49.400;8.684;2023-02-04T14:05:18;9.48;;;1.45;;
55224;SDS011;41091;49.400;8.684;2023-02-04T14:07:46;7.47;;;1.27;;
55224;SDS011;41091;49.400;8.684;2023-02-04T14:10:11;8.70;;;1.38;;
55224;SDS011;41091;49.400;8.684;2023-02-04T14:12:36;13.93;;;2.40;;
55224;SDS011;41091;49.400;8.684;2023-02-04T14:15:02;10.43;;;1.58;;
55224;SDS011;41091;49.400;8.684;2023-02-04T14:17:30;6.90;;;2.10;;
55224;SDS011;41091;49.400;8.684;2023-02-04T14:19:55;6.93;;;2.00;;
55224;SDS011;41091;49.400;8.684;2023-02-04T14:22:20;11.60;;;1.70;;
55224;SDS011;41091;49.400;8.684;2023-02-04T14:24:46;11.52;;;2.80;;
55224;SDS011;41091;49.400;8.684;2023-02-04T14:27:14;2.13;;;0.95;;
55224;SDS011;41091;49.400;8.684;2023-02-04T14:29:39;5.53;;;1.35;;
55224;SDS011;41091;49.400;8.684;2023-02-04T14:32:05;11.05;;;1.63;;
55224;SDS011;41091;49.400;8.684;2023-02-04T14:34:30;12.85;;;1.75;;
55224;SDS011;41091;49.400;8.684;2023-02-04T14:36:58;5.15;;;1.70;;
55224;SDS011;41091;49.400;8.684;2023-02-04T14:39:23;11.95;;;1.38;;
55224;SDS011;41091;49.400;8.684;2023-02-04T14:41:51;4.10;;;1.35;;
55224;SDS011;41091;49.400;8.684;2023-02-04T14:44:16;7.53;;;1.30;;
55224;SDS011;41091;49.400;8.684;2023-02-04T14:46:44;4.68;;;1.33;;
55224;SDS011;41091;49.400;8.684;2023-02-04T14:49:12;4.32;;;1.60;;
55224;SDS011;41091;49.400;8.684;2023-02-04T14:51:40;5.70;;;1.38;;
55224;SDS011;41091;49.400;8.684;2023-02-04T14:54:08;6.05;;;2.13;;
55224;SDS011;41091;49.400;8.684;2023-02-04T14:56:40;8.45;;;1.65;;
55224;SDS011;41091;49.400;8.684;2023-02-04T14:59:07;9.38;;;2.63;;
55224;SDS011;41091;49.400;8.684;2023-02-04T15:01:33;7.63;;;1.40;;
55224;SDS011;41091;49.400;8.684;2023-02-04T15:03:58;6.32;;;1.65;;
55224;SDS011;41091;49.400;8.684;2023-02-04T15:06:24;7.65;;;1.40;;
55224;SDS011;41091;49.400;8.684;2023-02-04T15:08:49;8.38;;;1.77;;
55224;SDS011;41091;49.400;8.684;2023-02-04T15:11:14;5.50;;;1.50;;